This is the latest recevied weather packets stored in our database for station/object K4CRS-13. If no packets are shown the sender has not sent any weather packets the latest 10 day(s).
| Time | Temp. | Humidity | Pressure | Rain* | Wind** | Luminosity | Snow |
|---|---|---|---|---|---|---|---|
| 1777819646 | 15.56° C | 50% | 1057.4 hPa | 0 mm | - | 601 W/m² | - |
| 1777819344 | 15.56° C | 51% | 1057.6 hPa | 0 mm | - | 586 W/m² | - |
| 1777819040 | 14.44° C | 52% | 1057.8 hPa | 0 mm | - | 572 W/m² | - |
| 1777818738 | 14.44° C | 53% | 1057.5 hPa | 0 mm | - | 559 W/m² | - |
| 1777818434 | 15° C | 54% | 1057.5 hPa | 0 mm | - | 540 W/m² | - |
| 1777818131 | 15° C | 59% | 1057.4 hPa | 0 mm | - | 525 W/m² | - |
| 1777817827 | 15° C | 58% | 1057.3 hPa | 0 mm | - | 508 W/m² | - |
| 1777817525 | 14.44° C | 59% | 1057.2 hPa | 0 mm | - | 493 W/m² | - |
| 1777817221 | 14.44° C | 64% | 1057.2 hPa | 0 mm | - | 475 W/m² | - |
| 1777816919 | 13.89° C | 64% | 1057.4 hPa | 0 mm | - | 459 W/m² | - |
| 1777816615 | 13.89° C | 65% | 1057.4 hPa | 0 mm | - | 444 W/m² | - |
| 1777816312 | 13.33° C | 65% | 1057.4 hPa | 0 mm | - | 429 W/m² | - |
| 1777816010 | 13.33° C | 66% | 1057.5 hPa | 0 mm | - | 407 W/m² | - |
| 1777815707 | 12.78° C | 68% | 1057.5 hPa | 0 mm | - | 391 W/m² | - |
| 1777815404 | 12.78° C | 70% | 1057.6 hPa | 0 mm | - | 374 W/m² | - |
| 1777815101 | 12.22° C | 72% | 1057.6 hPa | 0 mm | - | 363 W/m² | - |
| 1777814797 | 12.78° C | 72% | 1057.3 hPa | 0 mm | - | 303 W/m² | - |
| 1777814494 | 13.89° C | 76% | 1057.4 hPa | 0 mm | - | 258 W/m² | - |
| 1777814192 | 13.33° C | 78% | 1057.2 hPa | 0 mm | - | 235 W/m² | - |
| 1777813888 | 13.33° C | 81% | 1057.3 hPa | 0 mm | - | 203 W/m² | - |
| 1777813586 | 12.78° C | 84% | 1057.3 hPa | 0 mm | - | 182 W/m² | - |
| 1777813284 | 12.22° C | 86% | 1057.3 hPa | 0 mm | - | 163 W/m² | - |
| 1777812980 | 11.67° C | 89% | 1057.4 hPa | 0 mm | - | 144 W/m² | - |
| 1777812678 | 11.11° C | 91% | 1057 hPa | 0 mm | - | 131 W/m² | - |
| 1777812374 | 10.56° C | 93% | 1057 hPa | 0 mm | - | 120 W/m² | - |
* Rain latest hour (hover to see other rain measurements)
** Current wind speed in m/s (hover to see current wind gust speed)